createdAt,value
2019-04-29T00:00:06.847Z,13.56
2019-04-29T00:01:06.069Z,13.69
2019-04-29T00:02:06.384Z,14.06
2019-04-29T00:03:05.811Z,14.00
2019-04-29T00:04:05.372Z,13.94
2019-04-29T00:05:05.830Z,14.31
2019-04-29T00:06:05.840Z,14.50
2019-04-29T00:07:06.410Z,14.50
2019-04-29T00:08:06.050Z,14.38
2019-04-29T00:09:06.852Z,14.38
2019-04-29T00:10:05.423Z,14.81
2019-04-29T00:11:05.984Z,15.19
2019-04-29T00:12:05.183Z,15.44
2019-04-29T00:13:05.335Z,15.81
2019-04-29T00:14:05.421Z,16.00
2019-04-29T00:15:05.724Z,15.75
2019-04-29T00:16:05.898Z,15.88
2019-04-29T00:17:05.578Z,15.50
2019-04-29T00:18:05.826Z,15.31
2019-04-29T00:19:05.365Z,15.31
2019-04-29T00:20:05.820Z,14.94
2019-04-29T00:21:05.333Z,14.62
2019-04-29T00:22:05.979Z,14.75
2019-04-29T00:23:05.586Z,14.75
2019-04-29T00:24:05.419Z,14.31
2019-04-29T00:25:05.513Z,14.06
2019-04-29T00:26:05.663Z,14.19
2019-04-29T00:27:05.912Z,13.94
2019-04-29T00:28:06.062Z,13.81
2019-04-29T00:29:05.249Z,13.69
2019-04-29T00:30:05.424Z,13.62
2019-04-29T00:31:05.338Z,13.56
2019-04-29T00:32:06.170Z,13.75
2019-04-29T00:33:06.059Z,13.88
2019-04-29T00:34:06.088Z,13.69
2019-04-29T00:35:05.903Z,13.75
2019-04-29T00:36:05.245Z,13.50
2019-04-29T00:37:05.094Z,13.56
2019-04-29T00:38:05.737Z,13.69
2019-04-29T00:39:05.323Z,13.88
2019-04-29T00:40:06.495Z,13.69
2019-04-29T00:41:05.821Z,13.44
2019-04-29T00:42:05.346Z,13.31
2019-04-29T00:43:05.600Z,13.31
2019-04-29T00:44:05.166Z,13.44
2019-04-29T00:45:05.746Z,13.31
2019-04-29T00:46:05.846Z,13.38
2019-04-29T00:47:06.145Z,13.62
2019-04-29T00:48:05.249Z,13.94
2019-04-29T00:49:05.549Z,14.06
2019-04-29T00:50:05.260Z,13.94
2019-04-29T00:51:05.739Z,13.50
2019-04-29T00:52:05.972Z,13.31
2019-04-29T00:53:05.645Z,13.25
2019-04-29T00:54:05.513Z,13.44
2019-04-29T00:55:05.659Z,13.12
2019-04-29T00:56:05.977Z,13.06
2019-04-29T00:57:06.061Z,13.31
2019-04-29T00:58:05.516Z,13.06
2019-04-29T00:59:05.667Z,12.94
2019-04-29T01:00:05.980Z,12.88
2019-04-29T01:01:05.185Z,12.81
2019-04-29T01:02:05.572Z,12.75
2019-04-29T01:03:05.812Z,12.94
2019-04-29T01:04:05.176Z,12.81
2019-04-29T01:05:05.340Z,12.69
2019-04-29T01:06:05.895Z,12.56
2019-04-29T01:07:05.182Z,12.44
2019-04-29T01:08:05.751Z,12.38
2019-04-29T01:09:06.126Z,12.38
2019-04-29T01:10:05.174Z,12.38
2019-04-29T01:11:05.423Z,12.31
2019-04-29T01:12:05.886Z,12.31
2019-04-29T01:13:05.001Z,12.31
2019-04-29T01:14:05.334Z,12.50
2019-04-29T01:15:05.494Z,12.50
2019-04-29T01:16:05.476Z,12.62
2019-04-29T01:17:05.243Z,12.62
2019-04-29T01:18:05.601Z,12.62
2019-04-29T01:19:05.654Z,12.56
2019-04-29T01:20:05.661Z,12.75
2019-04-29T01:21:05.176Z,12.69
2019-04-29T01:22:05.490Z,12.69
2019-04-29T01:23:05.739Z,12.50
2019-04-29T01:24:05.337Z,12.50
2019-04-29T01:25:05.752Z,12.50
2019-04-29T01:26:05.998Z,12.44
2019-04-29T01:27:06.055Z,12.62
2019-04-29T01:28:05.595Z,12.62
2019-04-29T01:29:05.847Z,12.88
2019-04-29T01:30:05.055Z,13.62
2019-04-29T01:31:05.399Z,14.00
2019-04-29T01:32:05.738Z,14.44
2019-04-29T01:33:05.954Z,14.75
2019-04-29T01:34:05.808Z,14.81
2019-04-29T01:35:06.089Z,14.38
2019-04-29T01:36:06.215Z,14.19
2019-04-29T01:37:05.992Z,14.00
2019-04-29T01:38:05.794Z,14.06
2019-04-29T01:39:06.233Z,14.25
2019-04-29T01:40:05.312Z,14.62
2019-04-29T01:41:05.626Z,14.69
2019-04-29T01:42:05.501Z,14.31
2019-04-29T01:43:05.742Z,14.38
2019-04-29T01:44:05.093Z,14.25
2019-04-29T01:45:05.485Z,14.25
2019-04-29T01:46:05.384Z,14.38
2019-04-29T01:47:05.433Z,14.69
2019-04-29T01:48:05.424Z,14.50
2019-04-29T01:49:05.790Z,14.44
2019-04-29T01:50:05.265Z,14.31
2019-04-29T01:51:05.340Z,14.12
2019-04-29T01:52:05.426Z,13.94
2019-04-29T01:53:05.816Z,14.00
2019-04-29T01:54:05.662Z,13.75
2019-04-29T01:55:05.723Z,13.56
2019-04-29T01:56:05.102Z,13.75
2019-04-29T01:57:05.493Z,13.88
2019-04-29T01:58:05.989Z,14.19
2019-04-29T01:59:05.180Z,14.19
2019-04-29T02:00:05.756Z,14.06
2019-04-29T02:01:05.930Z,14.12
2019-04-29T02:02:05.095Z,13.94
2019-04-29T02:03:05.275Z,13.88
2019-04-29T02:04:05.571Z,14.12
2019-04-29T02:05:06.055Z,14.31
2019-04-29T02:06:06.199Z,14.44
2019-04-29T02:07:05.578Z,14.56
2019-04-29T02:08:05.922Z,14.44
2019-04-29T02:09:06.070Z,14.06
2019-04-29T02:10:05.646Z,14.12
2019-04-29T02:11:05.422Z,14.00
2019-04-29T02:12:05.918Z,13.88
2019-04-29T02:13:05.937Z,14.00
2019-04-29T02:14:05.980Z,14.00
2019-04-29T02:15:05.569Z,13.62
2019-04-29T02:16:05.098Z,13.69
2019-04-29T02:17:05.490Z,13.56
2019-04-29T02:18:05.906Z,13.31
2019-04-29T02:19:06.058Z,13.12
2019-04-29T02:20:06.065Z,13.50
2019-04-29T02:21:05.954Z,13.81
2019-04-29T02:22:06.823Z,13.69
2019-04-29T02:23:05.254Z,13.69
2019-04-29T02:24:05.651Z,13.69
2019-04-29T02:25:05.111Z,13.81
2019-04-29T02:26:05.800Z,14.12
2019-04-29T02:27:05.757Z,14.56
2019-04-29T02:28:05.424Z,14.88
2019-04-29T02:29:05.762Z,15.19
2019-04-29T02:30:06.125Z,15.44
2019-04-29T02:31:05.980Z,15.38
2019-04-29T02:32:05.811Z,15.38
2019-04-29T02:33:05.512Z,15.69
2019-04-29T02:34:05.748Z,15.12
2019-04-29T02:35:05.737Z,15.25
2019-04-29T02:36:06.067Z,15.19
2019-04-29T02:37:05.165Z,14.94
2019-04-29T02:38:06.403Z,14.81
2019-04-29T02:39:06.064Z,14.81
2019-04-29T02:40:05.003Z,14.31
2019-04-29T02:41:05.274Z,14.12
2019-04-29T02:42:05.488Z,14.12
2019-04-29T02:43:05.575Z,14.19
2019-04-29T02:44:05.888Z,14.00
2019-04-29T02:45:05.329Z,13.69
2019-04-29T02:46:05.636Z,14.06
2019-04-29T02:47:06.143Z,14.00
2019-04-29T02:48:05.647Z,14.00
2019-04-29T02:49:05.896Z,13.81
2019-04-29T02:50:05.816Z,13.69
2019-04-29T02:51:05.705Z,14.06
2019-04-29T02:52:05.977Z,14.25
2019-04-29T02:53:05.756Z,14.38
2019-04-29T02:54:05.787Z,14.31
2019-04-29T02:55:05.813Z,14.44
2019-04-29T02:56:05.175Z,14.50
2019-04-29T02:57:05.735Z,14.19
2019-04-29T02:58:05.483Z,13.94
2019-04-29T02:59:05.674Z,14.00
2019-04-29T03:00:05.763Z,13.88
2019-04-29T03:01:07.853Z,13.75
2019-04-29T03:02:05.426Z,13.69
2019-04-29T03:03:05.888Z,13.69
2019-04-29T03:04:05.448Z,13.44
2019-04-29T03:05:05.176Z,13.75
2019-04-29T03:06:06.846Z,13.75
2019-04-29T03:07:05.571Z,14.31
2019-04-29T03:08:05.736Z,15.06
2019-04-29T03:09:05.290Z,14.88
2019-04-29T03:10:06.399Z,14.81
2019-04-29T03:11:05.117Z,14.81
2019-04-29T03:12:05.899Z,15.12
2019-04-29T03:13:06.068Z,15.38
2019-04-29T03:14:05.658Z,15.31
2019-04-29T03:15:05.165Z,15.69
2019-04-29T03:16:05.509Z,15.50
2019-04-29T03:17:05.963Z,15.50
2019-04-29T03:18:06.134Z,15.56
2019-04-29T03:19:05.177Z,15.00
2019-04-29T03:20:05.506Z,14.75
2019-04-29T03:21:06.518Z,14.31
2019-04-29T03:22:05.081Z,14.31
2019-04-29T03:23:05.263Z,14.50
2019-04-29T03:24:05.882Z,14.56
2019-04-29T03:25:05.759Z,14.50
2019-04-29T03:26:06.589Z,14.44
2019-04-29T03:27:05.103Z,14.44
2019-04-29T03:28:05.979Z,14.50
2019-04-29T03:29:05.421Z,14.50
2019-04-29T03:30:05.498Z,14.50
2019-04-29T03:31:05.983Z,14.38
2019-04-29T03:32:05.681Z,14.38
2019-04-29T03:33:05.749Z,14.50
2019-04-29T03:34:05.863Z,14.56
2019-04-29T03:35:05.349Z,14.56
2019-04-29T03:36:05.500Z,14.56
2019-04-29T03:37:05.577Z,14.25
2019-04-29T03:38:05.273Z,14.19
2019-04-29T03:39:05.986Z,14.12
2019-04-29T03:40:05.655Z,14.06
2019-04-29T03:41:05.413Z,14.12
2019-04-29T03:42:07.310Z,14.00
2019-04-29T03:43:06.066Z,14.00
2019-04-29T03:44:05.507Z,14.12
2019-04-29T03:45:05.685Z,14.19
2019-04-29T03:46:06.064Z,14.44
2019-04-29T03:47:05.153Z,14.44
2019-04-29T03:48:05.580Z,14.38
2019-04-29T03:49:06.068Z,14.50
2019-04-29T03:50:05.489Z,14.44
2019-04-29T03:51:05.968Z,14.50
2019-04-29T03:52:05.580Z,14.44
2019-04-29T03:53:05.167Z,14.19
2019-04-29T03:54:05.489Z,14.44
2019-04-29T03:55:05.646Z,14.31
2019-04-29T03:56:05.493Z,14.88
2019-04-29T03:57:05.185Z,15.00
2019-04-29T03:58:05.582Z,14.88
2019-04-29T03:59:06.167Z,15.31
2019-04-29T04:00:05.255Z,15.00
2019-04-29T04:01:05.339Z,16.88
2019-04-29T04:02:07.014Z,15.62
2019-04-29T04:03:06.158Z,15.31
2019-04-29T04:04:05.490Z,15.19
2019-04-29T04:05:09.242Z,15.31
2019-04-29T04:06:05.181Z,14.81
2019-04-29T04:07:05.879Z,14.62
2019-04-29T04:08:06.180Z,14.62
2019-04-29T04:09:06.533Z,14.88
2019-04-29T04:10:05.187Z,14.75
2019-04-29T04:11:05.428Z,14.56
2019-04-29T04:12:05.799Z,14.50
2019-04-29T04:13:05.415Z,14.44
2019-04-29T04:14:05.492Z,14.44
2019-04-29T04:15:05.647Z,14.31
2019-04-29T04:16:05.817Z,14.25
2019-04-29T04:17:05.356Z,14.25
2019-04-29T04:18:05.735Z,14.31
2019-04-29T04:19:05.892Z,14.38
2019-04-29T04:20:05.743Z,14.69
2019-04-29T04:21:05.645Z,14.56
2019-04-29T04:22:05.343Z,14.44
2019-04-29T04:23:05.562Z,14.44
2019-04-29T04:24:05.337Z,14.56
2019-04-29T04:25:06.297Z,14.44
2019-04-29T04:26:05.344Z,14.38
2019-04-29T04:27:06.065Z,14.38
2019-04-29T04:28:05.325Z,14.31
2019-04-29T04:29:06.709Z,14.25
2019-04-29T04:30:05.038Z,14.25
2019-04-29T04:31:06.830Z,14.19
2019-04-29T04:32:05.726Z,14.31
2019-04-29T04:33:05.418Z,14.31
2019-04-29T04:34:05.663Z,13.94
2019-04-29T04:35:05.530Z,13.75
2019-04-29T04:36:05.732Z,13.50
2019-04-29T04:37:05.908Z,13.44
2019-04-29T04:38:05.497Z,13.50
2019-04-29T04:39:06.060Z,13.62
2019-04-29T04:40:05.815Z,13.56
2019-04-29T04:41:05.530Z,13.62
2019-04-29T04:42:05.971Z,13.69
2019-04-29T04:43:05.744Z,13.75
2019-04-29T04:44:05.911Z,13.81
2019-04-29T04:45:06.222Z,14.00
2019-04-29T04:46:05.735Z,14.19
2019-04-29T04:47:05.196Z,14.31
2019-04-29T04:48:05.611Z,14.31
2019-04-29T04:49:05.588Z,14.31
2019-04-29T04:50:05.882Z,14.44
2019-04-29T04:51:05.585Z,14.50
2019-04-29T04:52:05.989Z,14.50
2019-04-29T04:53:05.661Z,14.50
2019-04-29T04:54:05.948Z,14.56
2019-04-29T04:55:05.985Z,14.56
2019-04-29T04:56:05.398Z,14.62
2019-04-29T04:57:05.075Z,14.69
2019-04-29T04:58:05.465Z,15.44
2019-04-29T04:59:05.340Z,15.25
2019-04-29T05:00:05.420Z,15.19
2019-04-29T05:01:05.819Z,15.50
2019-04-29T05:02:05.755Z,15.69
2019-04-29T05:03:05.749Z,15.88
2019-04-29T05:04:05.323Z,15.69
2019-04-29T05:05:05.414Z,15.62
2019-04-29T05:06:05.649Z,15.56
2019-04-29T05:07:05.216Z,15.69
2019-04-29T05:08:05.852Z,15.62
2019-04-29T05:09:06.135Z,15.31
2019-04-29T05:10:05.984Z,15.06
2019-04-29T05:11:05.471Z,14.81
2019-04-29T05:12:05.639Z,14.69
2019-04-29T05:13:05.496Z,14.50
2019-04-29T05:14:05.967Z,14.44
2019-04-29T05:15:05.339Z,14.50
2019-04-29T05:16:06.163Z,14.50
2019-04-29T05:17:05.166Z,14.44
2019-04-29T05:18:05.416Z,14.38
2019-04-29T05:19:06.166Z,14.31
2019-04-29T05:20:05.223Z,14.25
2019-04-29T05:21:05.400Z,14.19
2019-04-29T05:22:05.738Z,14.19
2019-04-29T05:23:05.363Z,14.12
2019-04-29T05:24:05.581Z,14.75
2019-04-29T05:25:06.056Z,14.50
2019-04-29T05:26:05.684Z,14.38
2019-04-29T05:27:05.262Z,14.38
2019-04-29T05:28:05.499Z,14.38
2019-04-29T05:29:05.987Z,14.50
2019-04-29T05:30:05.097Z,14.50
2019-04-29T05:31:06.198Z,14.56
2019-04-29T05:32:06.148Z,14.62
2019-04-29T05:33:05.588Z,14.75
2019-04-29T05:34:05.654Z,14.69
2019-04-29T05:35:06.009Z,14.81
2019-04-29T05:36:05.265Z,14.75
2019-04-29T05:37:05.660Z,14.62
2019-04-29T05:38:05.583Z,14.50
2019-04-29T05:39:05.491Z,14.38
2019-04-29T05:40:05.503Z,14.38
2019-04-29T05:41:05.660Z,14.75
2019-04-29T05:42:07.183Z,14.81
2019-04-29T05:43:05.379Z,14.81
2019-04-29T05:44:05.977Z,14.81
2019-04-29T05:45:06.219Z,14.81
2019-04-29T05:46:07.350Z,14.94
2019-04-29T05:47:05.442Z,15.00
2019-04-29T05:48:06.001Z,15.06
2019-04-29T05:49:07.080Z,15.06
2019-04-29T05:50:06.534Z,15.44
2019-04-29T05:51:05.464Z,15.31
2019-04-29T05:52:05.671Z,15.38
2019-04-29T05:53:05.681Z,15.44
2019-04-29T05:54:05.109Z,15.44
2019-04-29T05:55:09.378Z,15.44
2019-04-29T05:56:06.243Z,15.38
2019-04-29T05:57:05.253Z,15.62
2019-04-29T05:58:06.048Z,15.62
2019-04-29T05:59:08.415Z,15.62
2019-04-29T06:00:05.666Z,15.81
2019-04-29T06:01:05.397Z,15.69
2019-04-29T06:02:05.731Z,15.69
2019-04-29T06:03:05.804Z,15.75
2019-04-29T06:04:05.338Z,15.69
2019-04-29T06:05:05.905Z,15.75
2019-04-29T06:06:05.744Z,15.69
2019-04-29T06:07:05.970Z,15.94
2019-04-29T06:08:05.271Z,16.06
2019-04-29T06:09:05.976Z,16.00
2019-04-29T06:10:05.445Z,15.94
2019-04-29T06:11:05.725Z,15.81
2019-04-29T06:12:05.870Z,15.75
2019-04-29T06:13:05.395Z,15.88
2019-04-29T06:14:05.592Z,16.06
2019-04-29T06:15:05.757Z,16.00
2019-04-29T06:16:05.972Z,15.81
2019-04-29T06:17:07.755Z,15.81
2019-04-29T06:18:05.322Z,15.81
2019-04-29T06:19:06.012Z,15.75
2019-04-29T06:20:05.326Z,15.75
2019-04-29T06:21:09.066Z,15.56
2019-04-29T06:22:07.070Z,15.56
2019-04-29T06:23:05.763Z,15.94
2019-04-29T06:24:06.298Z,15.94
2019-04-29T06:25:05.313Z,15.81
2019-04-29T06:26:05.508Z,16.06
2019-04-29T06:27:05.503Z,16.19
2019-04-29T06:28:05.601Z,16.50
2019-04-29T06:29:05.943Z,16.62
2019-04-29T06:30:05.192Z,16.56
2019-04-29T06:31:05.696Z,16.62
2019-04-29T06:32:05.914Z,16.75
2019-04-29T06:33:05.749Z,16.62
2019-04-29T06:34:06.483Z,16.69
2019-04-29T06:35:06.043Z,16.81
2019-04-29T06:36:05.591Z,16.94
2019-04-29T06:37:05.985Z,16.88
2019-04-29T06:38:06.292Z,16.88
2019-04-29T06:39:06.085Z,17.00
2019-04-29T06:40:05.657Z,16.88
2019-04-29T06:41:09.288Z,17.00
2019-04-29T06:42:05.971Z,17.00
2019-04-29T06:43:05.079Z,17.12
2019-04-29T06:44:11.744Z,17.25
2019-04-29T06:45:05.174Z,17.31
2019-04-29T06:46:05.575Z,17.25
2019-04-29T06:47:07.914Z,17.31
2019-04-29T06:48:05.477Z,17.25
2019-04-29T06:49:10.276Z,17.56
2019-04-29T06:50:05.286Z,17.25
2019-04-29T06:51:05.586Z,17.12
2019-04-29T06:52:05.537Z,17.00
2019-04-29T06:53:05.356Z,16.94
2019-04-29T06:54:05.350Z,16.88
2019-04-29T06:55:05.420Z,16.88
2019-04-29T06:56:05.571Z,16.81
2019-04-29T06:57:06.133Z,17.00
2019-04-29T06:58:05.247Z,16.94
2019-04-29T06:59:07.441Z,17.25
2019-04-29T07:00:05.578Z,17.06
2019-04-29T07:01:05.176Z,16.94
2019-04-29T07:02:09.338Z,16.81
2019-04-29T07:03:05.745Z,16.75
2019-04-29T07:04:05.246Z,16.69
2019-04-29T07:05:05.736Z,16.75
2019-04-29T07:06:05.488Z,16.69
2019-04-29T07:07:05.228Z,16.75
2019-04-29T07:08:05.905Z,16.81
2019-04-29T07:09:05.259Z,17.00
2019-04-29T07:10:05.259Z,16.94
2019-04-29T07:11:05.694Z,17.12
2019-04-29T07:12:08.067Z,17.31
2019-04-29T07:13:05.906Z,17.19
2019-04-29T07:14:05.334Z,17.19
2019-04-29T07:15:07.531Z,17.31
2019-04-29T07:16:05.974Z,17.62
2019-04-29T07:17:05.768Z,17.38
2019-04-29T07:18:05.497Z,17.19
2019-04-29T07:19:05.919Z,17.19
2019-04-29T07:20:05.412Z,17.19
2019-04-29T07:21:07.422Z,17.25
2019-04-29T07:22:05.380Z,17.31
2019-04-29T07:23:06.153Z,17.38
2019-04-29T07:24:05.247Z,17.38
2019-04-29T07:25:05.336Z,17.38
2019-04-29T07:26:05.329Z,17.56
2019-04-29T07:27:06.145Z,17.69
2019-04-29T07:28:06.132Z,17.75
2019-04-29T07:29:05.403Z,17.69
2019-04-29T07:30:06.417Z,17.62
2019-04-29T07:31:05.973Z,17.62
2019-04-29T07:32:09.192Z,17.69
2019-04-29T07:33:06.184Z,17.69
2019-04-29T07:34:08.214Z,17.75
2019-04-29T07:35:09.337Z,17.94
2019-04-29T07:36:11.013Z,17.88
2019-04-29T07:37:06.103Z,17.94
2019-04-29T07:38:08.511Z,18.00
2019-04-29T07:39:05.336Z,18.25
2019-04-29T07:40:07.925Z,18.31
2019-04-29T07:41:05.801Z,18.12
2019-04-29T07:42:05.819Z,18.06
2019-04-29T07:43:07.689Z,18.12
2019-04-29T07:44:06.167Z,18.00
2019-04-29T07:45:05.178Z,18.00
2019-04-29T07:46:05.631Z,17.94
2019-04-29T07:47:05.112Z,17.88
2019-04-29T07:48:06.242Z,17.88
2019-04-29T07:49:05.871Z,17.94
2019-04-29T07:50:05.499Z,18.00
2019-04-29T07:51:05.993Z,17.94
2019-04-29T07:52:09.652Z,18.38
2019-04-29T07:53:06.150Z,18.19
2019-04-29T07:54:05.422Z,18.38
2019-04-29T07:55:05.728Z,18.50
2019-04-29T07:56:06.226Z,18.50
2019-04-29T07:57:06.049Z,18.50
2019-04-29T07:58:05.556Z,18.56
2019-04-29T07:59:05.809Z,18.50
2019-04-29T08:00:08.465Z,18.44
2019-04-29T08:01:05.847Z,18.69
2019-04-29T08:02:05.812Z,18.69
2019-04-29T08:03:05.331Z,18.62
2019-04-29T08:04:06.282Z,18.56
2019-04-29T08:05:05.816Z,18.75
2019-04-29T08:06:05.487Z,18.75
2019-04-29T08:07:05.571Z,18.69
2019-04-29T08:08:05.886Z,18.75
2019-04-29T08:09:07.816Z,18.69
2019-04-29T08:10:05.345Z,18.81
2019-04-29T08:11:05.988Z,18.88
2019-04-29T08:12:05.404Z,18.81
2019-04-29T08:13:05.811Z,18.81
2019-04-29T08:14:06.070Z,18.81
2019-04-29T08:15:07.668Z,19.06
2019-04-29T08:16:05.342Z,18.94
2019-04-29T08:17:05.659Z,18.94
2019-04-29T08:18:08.406Z,19.06
2019-04-29T08:19:05.687Z,19.06
2019-04-29T08:20:06.439Z,19.06
2019-04-29T08:21:06.055Z,19.19
2019-04-29T08:22:05.662Z,19.19
2019-04-29T08:23:06.084Z,19.12
2019-04-29T08:24:05.467Z,19.19
2019-04-29T08:25:05.726Z,19.44
2019-04-29T08:26:05.700Z,19.56
2019-04-29T08:27:06.055Z,19.56
2019-04-29T08:28:05.278Z,19.69
2019-04-29T08:29:06.498Z,19.56
2019-04-29T08:30:06.611Z,19.44
2019-04-29T08:31:07.477Z,19.25
2019-04-29T08:32:05.605Z,18.88
2019-04-29T08:33:07.465Z,18.81
2019-04-29T08:34:05.824Z,18.62
2019-04-29T08:35:05.592Z,18.56
2019-04-29T08:36:05.232Z,18.50
2019-04-29T08:37:05.825Z,18.50
2019-04-29T08:38:06.239Z,18.56
2019-04-29T08:39:08.512Z,18.44
2019-04-29T08:40:15.799Z,18.50
2019-04-29T08:41:05.882Z,18.56
2019-04-29T08:42:08.936Z,18.44
2019-04-29T08:43:05.665Z,18.38
2019-04-29T08:44:15.603Z,18.31
2019-04-29T08:45:05.263Z,18.25
2019-04-29T08:46:05.565Z,18.31
2019-04-29T08:47:05.965Z,18.44
2019-04-29T08:48:05.407Z,18.38
2019-04-29T08:49:07.641Z,18.31
2019-04-29T08:50:05.354Z,18.19
2019-04-29T08:51:05.586Z,18.19
2019-04-29T08:52:05.824Z,18.12
2019-04-29T08:53:05.249Z,18.44
2019-04-29T08:54:06.273Z,18.38
2019-04-29T08:55:06.434Z,18.38
2019-04-29T08:56:09.593Z,18.31
2019-04-29T08:57:05.728Z,18.12
2019-04-29T08:58:06.820Z,18.06
2019-04-29T08:59:05.895Z,18.12
2019-04-29T09:00:06.168Z,18.00
2019-04-29T09:01:05.512Z,18.12
2019-04-29T09:02:09.960Z,18.06
2019-04-29T09:03:06.044Z,18.06
2019-04-29T09:04:05.419Z,18.19
2019-04-29T09:05:06.664Z,18.19
2019-04-29T09:06:07.009Z,18.12
2019-04-29T09:07:12.233Z,18.25
2019-04-29T09:08:05.330Z,18.38
2019-04-29T09:09:09.165Z,18.44
2019-04-29T09:10:05.818Z,18.31
2019-04-29T09:11:07.995Z,18.31
2019-04-29T09:12:05.519Z,18.25
2019-04-29T09:13:05.751Z,18.31
2019-04-29T09:14:05.173Z,18.31
2019-04-29T09:15:05.728Z,18.19
2019-04-29T09:16:05.169Z,18.19
2019-04-29T09:17:19.392Z,18.31
2019-04-29T09:18:05.294Z,18.19
2019-04-29T09:19:05.579Z,17.94
2019-04-29T09:20:05.910Z,17.75
2019-04-29T09:21:05.333Z,17.56
2019-04-29T09:22:05.510Z,17.62
2019-04-29T09:23:08.041Z,17.62
2019-04-29T09:24:05.952Z,17.62
2019-04-29T09:25:05.819Z,17.62
2019-04-29T09:26:05.846Z,17.56
2019-04-29T09:27:09.438Z,17.50
2019-04-29T09:28:05.744Z,17.56
2019-04-29T09:29:05.692Z,17.56
2019-04-29T09:30:05.174Z,17.62
2019-04-29T09:31:05.990Z,17.69
2019-04-29T09:32:05.335Z,17.81
2019-04-29T09:33:08.633Z,17.88
2019-04-29T09:34:06.260Z,18.00
2019-04-29T09:35:05.699Z,18.06
2019-04-29T09:36:09.477Z,18.00
2019-04-29T09:37:06.984Z,18.06
2019-04-29T09:38:05.919Z,18.06
2019-04-29T09:39:05.955Z,18.50
2019-04-29T09:40:05.090Z,18.81
2019-04-29T09:41:05.452Z,18.75
2019-04-29T09:42:07.988Z,18.69
2019-04-29T09:43:15.076Z,18.62
2019-04-29T09:44:05.543Z,18.50
2019-04-29T09:45:05.261Z,18.25
2019-04-29T09:46:05.593Z,18.25
2019-04-29T09:47:08.421Z,18.31
2019-04-29T09:48:05.654Z,18.19
2019-04-29T09:49:05.735Z,18.25
2019-04-29T09:50:05.410Z,18.25
2019-04-29T09:51:16.571Z,18.31
2019-04-29T09:52:05.417Z,18.12
2019-04-29T09:53:05.740Z,18.44
2019-04-29T09:54:09.525Z,19.00
2019-04-29T09:55:05.798Z,18.75
2019-04-29T09:56:05.583Z,18.94
2019-04-29T09:57:05.828Z,18.94
2019-04-29T09:58:05.881Z,18.81
2019-04-29T09:59:05.268Z,18.56
2019-04-29T10:00:06.956Z,18.44
2019-04-29T10:01:05.679Z,18.38
2019-04-29T10:02:05.910Z,18.38
2019-04-29T10:03:05.258Z,18.38
2019-04-29T10:04:05.429Z,18.50
2019-04-29T10:05:07.107Z,18.44
2019-04-29T10:06:05.106Z,18.44
2019-04-29T10:07:05.731Z,18.38
2019-04-29T10:08:06.234Z,18.38
2019-04-29T10:09:05.914Z,18.75
2019-04-29T10:10:06.773Z,18.56
2019-04-29T10:11:05.187Z,18.31
2019-04-29T10:12:05.432Z,18.06
2019-04-29T10:13:05.647Z,17.88
2019-04-29T10:14:05.256Z,17.81
2019-04-29T10:15:07.123Z,17.69
2019-04-29T10:16:05.638Z,17.56
2019-04-29T10:17:06.148Z,17.44
2019-04-29T10:18:05.107Z,17.38
2019-04-29T10:19:06.954Z,17.25
2019-04-29T10:20:07.964Z,17.25
2019-04-29T10:21:05.770Z,17.31
2019-04-29T10:22:05.989Z,17.50
2019-04-29T10:23:05.741Z,17.50
2019-04-29T10:24:06.101Z,17.56
2019-04-29T10:25:05.898Z,17.56
2019-04-29T10:26:05.976Z,17.56
2019-04-29T10:27:07.184Z,17.56
2019-04-29T10:28:05.683Z,17.44
2019-04-29T10:29:05.327Z,17.44
2019-04-29T10:30:05.187Z,17.38
2019-04-29T10:31:05.512Z,17.31
2019-04-29T10:32:06.700Z,17.38
2019-04-29T10:33:05.897Z,17.38
2019-04-29T10:34:05.313Z,17.31
2019-04-29T10:35:08.612Z,17.38
2019-04-29T10:36:05.327Z,17.38
2019-04-29T10:37:05.732Z,17.69
2019-04-29T10:38:05.327Z,17.94
2019-04-29T10:39:05.667Z,17.94
2019-04-29T10:40:11.147Z,17.94
2019-04-29T10:41:05.593Z,17.94
2019-04-29T10:42:05.652Z,17.94
2019-04-29T10:43:06.634Z,17.81
2019-04-29T10:44:05.656Z,17.69
2019-04-29T10:45:06.183Z,17.56
2019-04-29T10:46:05.611Z,17.56
2019-04-29T10:47:05.316Z,17.56
2019-04-29T10:48:05.302Z,17.75
2019-04-29T10:49:05.604Z,17.81
2019-04-29T10:50:05.993Z,17.94
2019-04-29T10:51:05.202Z,17.88
2019-04-29T10:52:05.577Z,17.81
2019-04-29T10:53:05.665Z,17.94
2019-04-29T10:54:06.064Z,18.06
2019-04-29T10:55:06.665Z,18.19
2019-04-29T10:56:05.904Z,18.19
2019-04-29T10:57:06.058Z,18.06
2019-04-29T10:58:05.976Z,17.88
2019-04-29T10:59:09.076Z,17.50
2019-04-29T11:00:05.763Z,17.56
2019-04-29T11:01:05.989Z,17.44
2019-04-29T11:02:09.300Z,17.38
2019-04-29T11:03:06.219Z,17.31
2019-04-29T11:04:07.207Z,17.25
2019-04-29T11:05:07.802Z,17.25
2019-04-29T11:06:05.406Z,17.06
2019-04-29T11:07:13.742Z,17.00
2019-04-29T11:08:05.493Z,17.19
2019-04-29T11:09:05.577Z,17.19
2019-04-29T11:10:08.021Z,17.12
2019-04-29T11:11:05.574Z,17.06
2019-04-29T11:12:08.685Z,17.06
2019-04-29T11:13:06.188Z,17.19
2019-04-29T11:14:05.988Z,17.44
2019-04-29T11:15:05.254Z,17.38
2019-04-29T11:16:05.414Z,17.62
2019-04-29T11:17:05.835Z,17.69
2019-04-29T11:18:05.091Z,17.56
2019-04-29T11:19:05.796Z,17.44
2019-04-29T11:20:05.585Z,17.62
2019-04-29T11:21:08.609Z,17.50
2019-04-29T11:22:05.345Z,17.38
2019-04-29T11:23:09.070Z,17.25
2019-04-29T11:24:05.663Z,17.31
2019-04-29T11:25:05.329Z,17.00
2019-04-29T11:26:09.392Z,16.88
2019-04-29T11:27:11.739Z,16.81
2019-04-29T11:28:06.154Z,16.75
2019-04-29T11:29:08.944Z,16.69
2019-04-29T11:30:06.157Z,16.75
2019-04-29T11:31:05.424Z,16.69
2019-04-29T11:32:05.979Z,16.75
2019-04-29T11:33:06.258Z,16.94
2019-04-29T11:34:05.912Z,16.94
2019-04-29T11:35:05.594Z,17.12
2019-04-29T11:36:06.015Z,17.00
2019-04-29T11:37:05.914Z,16.94
2019-04-29T11:38:05.102Z,16.81
2019-04-29T11:39:08.937Z,16.94
2019-04-29T11:40:06.158Z,16.94
2019-04-29T11:41:05.251Z,17.12
2019-04-29T11:42:05.189Z,17.25
2019-04-29T11:43:05.663Z,17.19
2019-04-29T11:44:09.750Z,17.19
2019-04-29T11:45:06.228Z,17.69
2019-04-29T11:46:05.206Z,17.75
2019-04-29T11:47:05.898Z,17.88
2019-04-29T11:48:05.417Z,18.00
2019-04-29T11:49:05.506Z,18.00
2019-04-29T11:50:07.397Z,18.56
2019-04-29T11:51:05.669Z,18.81
2019-04-29T11:52:09.466Z,19.25
2019-04-29T11:53:05.841Z,19.25
2019-04-29T11:54:08.125Z,19.19
2019-04-29T11:55:05.834Z,19.25
2019-04-29T11:56:06.418Z,19.50
2019-04-29T11:57:06.167Z,19.62
2019-04-29T11:58:05.455Z,19.25
2019-04-29T11:59:05.899Z,19.12
2019-04-29T12:00:05.169Z,19.00
2019-04-29T12:01:08.239Z,19.00
2019-04-29T12:02:05.656Z,19.19
2019-04-29T12:03:05.112Z,18.94
2019-04-29T12:04:05.649Z,18.94
2019-04-29T12:05:08.529Z,18.94
2019-04-29T12:06:05.420Z,18.88
2019-04-29T12:07:05.851Z,18.81
2019-04-29T12:08:11.657Z,18.56
2019-04-29T12:09:06.734Z,18.25
2019-04-29T12:10:06.426Z,18.12
2019-04-29T12:11:06.880Z,17.44
2019-04-29T12:12:07.773Z,17.38
2019-04-29T12:13:05.352Z,17.31
2019-04-29T12:14:05.172Z,17.25
2019-04-29T12:15:08.979Z,17.12
2019-04-29T12:16:05.225Z,17.12
2019-04-29T12:17:05.949Z,17.00
2019-04-29T12:18:05.972Z,17.00
2019-04-29T12:19:05.507Z,16.88
2019-04-29T12:20:05.249Z,16.88
2019-04-29T12:21:05.652Z,16.75
2019-04-29T12:22:08.828Z,16.62
2019-04-29T12:23:05.239Z,16.69
2019-04-29T12:24:05.543Z,16.50
2019-04-29T12:25:05.834Z,16.50
2019-04-29T12:26:05.726Z,16.94
2019-04-29T12:27:06.152Z,17.25
2019-04-29T12:28:18.726Z,17.44
2019-04-29T12:29:05.114Z,17.62
2019-04-29T12:30:05.758Z,17.56
2019-04-29T12:31:05.613Z,17.56
2019-04-29T12:32:05.807Z,17.56
2019-04-29T12:33:05.567Z,17.50
2019-04-29T12:34:05.244Z,17.94
2019-04-29T12:35:05.657Z,18.19
2019-04-29T12:36:05.260Z,18.31
2019-04-29T12:37:06.002Z,18.62
2019-04-29T12:38:06.027Z,18.75
2019-04-29T12:39:05.595Z,18.88
2019-04-29T12:40:09.711Z,19.06
2019-04-29T12:41:05.521Z,19.06
2019-04-29T12:42:05.746Z,19.44
2019-04-29T12:43:05.478Z,18.81
2019-04-29T12:44:05.117Z,18.25
2019-04-29T12:45:18.455Z,18.00
2019-04-29T12:46:05.263Z,17.81
2019-04-29T12:47:05.587Z,17.69
2019-04-29T12:48:06.513Z,17.44
2019-04-29T12:49:08.163Z,17.25
2019-04-29T12:50:05.905Z,17.12
2019-04-29T12:51:05.162Z,16.94
2019-04-29T12:52:05.750Z,16.88